Rawlins Municipal Harvey Field
KRWL : now visible

Airfield :











YOU CAN JOIN US ON...

 
LOGIN :

Register | Disclaimer

   EN    FR    IT 

 









Legend :    VFR   Marginal VFR   IFR   Intensive IFR   Very Intensive IFR
Visi :
Ceiling :
>= 8 km
>= 3000ft
5 to 8 km
1000 to 3000 ft
1500m to 5 km
500 to 1000 ft
800 to 1500m
200 to 500 ft
< 800m
< 200 ft
Symbols :   Thunderstorms  Fog  Heavy snow  Heavy precipitations  Wind > 20 kt






- Airport Elevation : 6813 ft


KRWL - Rawlins Municipal Harvey Field

CURRENT METAR :
  • 281353Z AUTO 00000KT 10SM CLR 08/M05 A2995 RMK AO2 SLP086 T00831050

EXPIRED METARs :
  • 281253Z AUTO 00000KT 10SM CLR 03/M07 A2996 RMK AO2 SLP082 T00331072
  • 281153Z AUTO 36004KT 10SM CLR 04/M08 A2996 RMK AO2 SLP067 T00441078 10083 20039 56010

TAF KRWL
Valid from the 28 at 12:00 until the 29 at 12:00 UTC


281148Z 2812/2912 VRB03KT P6SM BKN200 OVC250
FM281600 15005KT P6SM BKN150
FM282000 22009KT P6SM SCT100 BKN150
FM290500 25012KT P6SM VCSH OVC080
FM291000 27016KT P6SM -SHRA OVC040
KZDV FIR / North America



MET'MAP, your aeronautical weather chart ! - Copyright ORBIFLY December 2007 - Disclaimer

ORBIFLY MET'MAP TEAM :

Programming & Development : Alexandra Zaïnal
Concept & original design : Baudouin d'Aumeries
Assistance for programming : Marc-Olivier Méhu
Technical & hardware support : Manuel Goepfert

Contact : metmap@orbifly.com




SOURCES & CREDITS :

   NOAA       Earth
Advisory